Time;durP1;ratioP1;P1;durP2;ratioP2;P2;SDS_P1;SDS_P2;PMS_P1;PMS_P2;Temp;Humidity;BMP_temperature;BMP_pressure;BME280_temperature;BME280_humidity;BME280_pressure;Samples;Min_cycle;Max_cycle;Signal;HPM_P1;HPM_P2
2021/11/09 00:00:28;;;;;;;9.68;4.63;;;6.10;99.90;;;;;;5069697;28;20028;-80
2021/11/09 00:02:55;;;;;;;11.63;4.72;;;6.10;99.90;;;;;;5041333;28;20035;-83
2021/11/09 00:05:25;;;;;;;14.70;5.72;;;6.10;99.90;;;;;;5032902;28;20036;-83
2021/11/09 00:07:55;;;;;;;13.13;5.32;;;6.10;99.90;;;;;;5045709;28;20032;-83
2021/11/09 00:10:23;;;;;;;14.10;5.97;;;6.10;99.90;;;;;;5045364;28;20037;-80
2021/11/09 00:12:53;;;;;;;14.98;6.40;;;6.10;99.90;;;;;;5034883;28;20039;-84
2021/11/09 00:15:22;;;;;;;9.60;5.20;;;6.10;99.90;;;;;;5029297;28;20053;-84
2021/11/09 00:17:53;;;;;;;12.98;5.25;;;6.10;99.90;;;;;;5022511;28;20036;-82
2021/11/09 00:20:22;;;;;;;22.67;11.68;;;6.10;99.90;;;;;;5043410;28;20040;-81
2021/11/09 00:22:49;;;;;;;20.48;12.15;;;6.10;99.90;;;;;;5047135;28;20036;-84
2021/11/09 00:25:18;;;;;;;21.38;11.98;;;6.00;99.90;;;;;;4991446;28;20040;-82
2021/11/09 00:27:45;;;;;;;30.00;14.00;;;6.00;99.90;;;;;;5042366;28;20497;-82
2021/11/09 00:30:15;;;;;;;30.02;14.50;;;6.00;99.90;;;;;;5044277;28;20037;-82
2021/11/09 00:32:43;;;;;;;21.13;11.88;;;5.90;99.90;;;;;;5031357;28;20044;-83
2021/11/09 00:35:15;;;;;;;23.20;11.20;;;5.90;99.90;;;;;;5007180;28;20063;-83
2021/11/09 00:37:43;;;;;;;22.85;12.38;;;5.90;99.90;;;;;;4995488;28;21201;-83
2021/11/09 00:40:15;;;;;;;22.27;10.95;;;5.90;99.90;;;;;;5004655;28;20044;-82
2021/11/09 00:42:41;;;;;;;18.10;9.68;;;5.90;99.90;;;;;;5023458;28;20681;-83
2021/11/09 00:45:10;;;;;;;19.15;8.32;;;5.80;99.90;;;;;;5012567;28;20029;-82
2021/11/09 00:47:37;;;;;;;15.85;7.28;;;5.80;99.90;;;;;;5028372;28;20041;-84
2021/11/09 00:50:07;;;;;;;11.02;6.82;;;5.80;99.90;;;;;;5044429;28;20063;-84
2021/11/09 00:52:34;;;;;;;12.70;6.13;;;5.80;99.90;;;;;;5031162;28;20395;-84
2021/11/09 00:55:02;;;;;;;14.25;5.82;;;5.80;99.90;;;;;;5031552;28;20388;-84
2021/11/09 00:57:29;;;;;;;12.02;6.13;;;5.70;99.90;;;;;;5036727;28;20369;-84
2021/11/09 00:59:56;;;;;;;13.57;7.05;;;5.70;99.90;;;;;;5022965;28;20056;-83
2021/11/09 01:02:23;;;;;;;10.77;5.95;;;5.70;99.90;;;;;;4999362;28;20033;-83
2021/11/09 01:04:49;;;;;;;10.82;6.70;;;5.70;99.90;;;;;;5009253;28;20032;-83
2021/11/09 01:07:16;;;;;;;12.68;5.43;;;5.70;99.90;;;;;;5017792;28;20515;-83
2021/11/09 01:09:43;;;;;;;12.45;6.32;;;5.70;99.90;;;;;;5049680;28;20032;-83
2021/11/09 01:12:10;;;;;;;14.57;6.18;;;5.60;99.90;;;;;;4992428;28;20021;-83
2021/11/09 01:14:38;;;;;;;7.78;5.20;;;5.60;99.90;;;;;;5034040;28;20397;-84
2021/11/09 01:17:05;;;;;;;13.00;6.28;;;5.60;99.90;;;;;;5058462;28;20032;-83
2021/11/09 01:19:33;;;;;;;10.35;5.68;;;5.50;99.90;;;;;;5045173;28;20037;-83
2021/11/09 01:22:02;;;;;;;12.55;4.75;;;5.50;99.90;;;;;;5046134;28;20043;-83
2021/11/09 01:24:28;;;;;;;11.02;6.15;;;5.50;99.90;;;;;;5057219;28;20028;-84
2021/11/09 01:26:56;;;;;;;10.65;4.80;;;5.50;99.90;;;;;;5038260;28;20047;-83
2021/11/09 01:29:23;;;;;;;14.25;5.40;;;5.50;99.90;;;;;;5041390;28;20475;-83
2021/11/09 01:31:53;;;;;;;10.90;4.97;;;5.50;99.90;;;;;;5037129;28;20036;-83
2021/11/09 01:34:20;;;;;;;11.63;5.70;;;5.50;99.90;;;;;;5041278;28;20044;-83
2021/11/09 01:36:47;;;;;;;12.18;5.38;;;5.50;99.90;;;;;;5059240;28;20040;-83
2021/11/09 01:39:13;;;;;;;10.85;5.40;;;5.50;99.90;;;;;;5059782;28;20032;-83
2021/11/09 01:41:41;;;;;;;13.52;5.68;;;5.40;99.90;;;;;;5045009;28;20380;-83
2021/11/09 01:44:08;;;;;;;11.50;5.63;;;5.40;99.90;;;;;;5025356;28;20033;-83
2021/11/09 01:46:36;;;;;;;9.00;5.68;;;5.40;99.90;;;;;;5055892;28;20480;-84
2021/11/09 01:49:04;;;;;;;10.88;5.03;;;5.40;99.90;;;;;;5051696;28;20396;-83
2021/11/09 01:51:31;;;;;;;15.32;5.55;;;5.40;99.90;;;;;;5047510;28;20055;-84
2021/11/09 01:53:59;;;;;;;11.80;5.75;;;5.40;99.90;;;;;;5015422;28;20067;-84
2021/11/09 01:56:47;;;;;;;10.30;5.55;;;5.30;99.90;;;;;;5026012;28;20155;-84
2021/11/09 01:59:13;;;;;;;11.20;5.75;;;5.30;99.90;;;;;;5035742;28;20033;-82
2021/11/09 02:01:41;;;;;;;8.63;4.78;;;5.30;99.90;;;;;;5029104;28;20028;-83
2021/11/09 02:04:08;;;;;;;8.65;5.32;;;5.30;99.90;;;;;;5033796;28;20088;-82
2021/11/09 02:06:36;;;;;;;11.75;5.72;;;5.20;99.90;;;;;;5027043;28;20028;-83
2021/11/09 02:09:12;;;;;;;10.18;4.68;;;5.30;99.90;;;;;;5032513;28;20071;-83
2021/11/09 02:11:39;;;;;;;10.80;5.57;;;5.20;99.90;;;;;;5037017;28;20037;-83
2021/11/09 02:14:09;;;;;;;12.52;6.50;;;5.20;99.90;;;;;;5024971;28;20492;-83
2021/11/09 02:16:36;;;;;;;10.80;5.60;;;5.10;99.90;;;;;;5032257;28;21281;-83
2021/11/09 02:19:06;;;;;;;11.85;5.35;;;5.10;99.90;;;;;;5033789;28;20067;-83
2021/11/09 02:21:36;;;;;;;12.00;4.95;;;5.10;99.90;;;;;;5035798;28;20449;-83
2021/11/09 02:24:03;;;;;;;18.58;6.35;;;5.10;99.90;;;;;;4999975;28;20063;-83
2021/11/09 02:26:30;;;;;;;10.75;5.70;;;5.10;99.90;;;;;;5043324;28;20384;-83
2021/11/09 02:28:58;;;;;;;12.88;6.03;;;5.10;99.90;;;;;;5048757;28;20040;-83
2021/11/09 02:31:28;;;;;;;15.40;5.95;;;5.00;99.90;;;;;;5032864;28;20032;-83
2021/11/09 02:33:54;;;;;;;11.82;5.97;;;5.00;99.90;;;;;;5033055;28;20377;-82
2021/11/09 02:36:23;;;;;;;9.10;5.65;;;5.00;99.90;;;;;;5014183;28;20496;-83
2021/11/09 02:38:50;;;;;;;14.88;6.03;;;5.00;99.90;;;;;;5016495;28;20396;-83
2021/11/09 02:41:18;;;;;;;11.85;6.03;;;5.00;99.90;;;;;;5039596;28;20481;-83
2021/11/09 02:43:45;;;;;;;11.30;6.57;;;4.90;99.90;;;;;;5019033;28;20033;-84
2021/11/09 02:48:53;;;;;;;18.63;8.82;;;4.90;99.90;;;;;;5049364;28;20045;-84
2021/11/09 02:54:36;;;;;;;14.30;6.18;;;4.90;99.90;;;;;;5044234;28;20045;-83
2021/11/09 02:57:04;;;;;;;12.80;5.85;;;4.90;99.90;;;;;;5028077;28;20045;-83
2021/11/09 02:59:58;;;;;;;15.25;6.88;;;4.80;99.90;;;;;;5033007;28;20040;-84
2021/11/09 03:02:43;;;;;;;11.25;5.60;;;4.80;99.90;;;;;;5018652;28;20048;-83
2021/11/09 03:10:24;;;;;;;17.38;6.57;;;4.80;99.90;;;;;;5042197;28;20044;-83
2021/11/09 03:12:51;;;;;;;12.98;6.88;;;4.70;99.90;;;;;;5008311;28;20139;-83
2021/11/09 03:15:22;;;;;;;15.57;7.43;;;4.70;99.90;;;;;;5018187;28;20056;-83
2021/11/09 03:17:53;;;;;;;20.48;7.80;;;4.70;99.90;;;;;;5033480;28;20442;-83
2021/11/09 03:40:01;;;;;;;17.90;8.70;;;4.70;99.90;;;;;;5046783;28;20495;-83
2021/11/09 03:45:20;;;;;;;13.35;7.10;;;4.60;99.90;;;;;;5039881;28;20488;-84
2021/11/09 03:47:53;;;;;;;10.48;5.90;;;4.60;99.90;;;;;;5030300;28;20041;-83
2021/11/09 03:50:20;;;;;;;;;;;4.60;99.90;;;;;;5028603;28;20484;-84
2021/11/09 03:52:53;;;;;;;12.75;6.53;;;4.50;99.90;;;;;;5032046;28;19917;-83
2021/11/09 04:00:39;;;;;;;15.13;8.68;;;4.50;99.90;;;;;;5046407;28;20496;-83
2021/11/09 04:03:17;;;;;;;16.13;6.78;;;4.50;99.90;;;;;;5031553;28;20036;-83
2021/11/09 04:05:47;;;;;;;10.55;6.80;;;4.50;99.90;;;;;;5022458;28;20092;-83
2021/11/09 04:14:30;;;;;;;10.85;6.13;;;4.40;99.90;;;;;;4970681;28;20064;-83
2021/11/09 04:17:02;;;;;;;18.63;8.15;;;4.40;99.90;;;;;;4974650;28;20524;-83
2021/11/09 04:19:55;;;;;;;14.60;7.70;;;4.40;99.90;;;;;;4983225;28;20053;-83
2021/11/09 04:28:02;;;;;;;16.17;8.95;;;4.30;99.90;;;;;;5033988;28;20037;-83
2021/11/09 04:30:46;;;;;;;17.40;8.32;;;4.40;99.90;;;;;;5004568;28;20033;-84
2021/11/09 05:02:56;;;;;;;16.20;8.32;;;4.10;99.90;;;;;;5048294;28;20049;-83
2021/11/09 05:10:44;;;;;;;16.73;9.82;;;4.10;99.90;;;;;;5035453;28;20044;-84
2021/11/09 05:13:12;;;;;;;19.25;8.73;;;4.10;99.90;;;;;;5047910;28;20029;-83
2021/11/09 05:15:39;;;;;;;13.63;8.50;;;4.10;99.90;;;;;;5036783;28;20051;-83
2021/11/09 05:18:09;;;;;;;14.10;6.93;;;4.00;99.90;;;;;;5054921;28;20033;-83
2021/11/09 05:20:35;;;;;;;14.25;7.95;;;4.00;99.90;;;;;;5006043;28;20396;-83
2021/11/09 05:23:05;;;;;;;12.50;7.15;;;4.00;99.90;;;;;;5010099;28;20040;-83
2021/11/09 05:25:32;;;;;;;14.00;7.60;;;4.00;99.90;;;;;;5047383;28;20476;-83
2021/11/09 05:27:58;;;;;;;13.75;6.65;;;4.00;99.90;;;;;;5016207;28;20400;-83
2021/11/09 05:30:25;;;;;;;14.90;7.65;;;3.90;99.90;;;;;;5035390;28;20476;-83
2021/11/09 05:32:54;;;;;;;13.07;8.00;;;3.90;99.90;;;;;;5038220;28;20471;-83
2021/11/09 05:35:22;;;;;;;18.30;9.20;;;3.90;99.90;;;;;;5035648;28;20051;-83
2021/11/09 05:37:51;;;;;;;19.35;10.65;;;3.90;99.90;;;;;;5069595;28;20037;-83
2021/11/09 05:40:20;;;;;;;15.88;9.57;;;3.90;99.90;;;;;;5027471;28;20506;-82
2021/11/09 05:42:47;;;;;;;18.95;10.40;;;3.90;99.90;;;;;;5038019;28;20032;-82
2021/11/09 05:45:17;;;;;;;18.17;11.02;;;3.90;99.90;;;;;;5010627;28;20037;-82
2021/11/09 05:47:43;;;;;;;19.05;10.32;;;3.90;99.90;;;;;;5014851;28;20029;-82
2021/11/09 05:50:11;;;;;;;16.88;9.57;;;3.90;99.90;;;;;;5018092;28;20491;-82
2021/11/09 05:52:38;;;;;;;23.25;9.45;;;3.90;99.90;;;;;;5012383;28;20043;-82
2021/11/09 05:55:05;;;;;;;15.48;8.13;;;3.80;99.90;;;;;;5034621;28;20051;-82
2021/11/09 05:57:31;;;;;;;33.55;12.35;;;3.80;99.90;;;;;;5021104;28;20415;-82
2021/11/09 05:59:58;;;;;;;20.48;10.63;;;3.80;99.90;;;;;;5006095;28;20498;-84
2021/11/09 06:02:24;;;;;;;17.13;10.38;;;3.80;99.90;;;;;;5004013;28;20567;-82
2021/11/09 06:04:54;;;;;;;23.55;12.00;;;3.80;99.90;;;;;;5002861;28;20037;-82
2021/11/09 06:07:21;;;;;;;15.45;10.00;;;3.80;99.90;;;;;;5008984;28;20025;-82
2021/11/09 06:09:47;;;;;;;17.83;9.70;;;3.80;99.90;;;;;;5004030;28;20036;-82
2021/11/09 06:12:14;;;;;;;15.35;7.60;;;3.80;99.90;;;;;;5026119;28;20032;-82
2021/11/09 06:14:40;;;;;;;17.30;9.05;;;3.80;99.90;;;;;;5025914;28;20511;-82
2021/11/09 06:17:07;;;;;;;18.15;9.88;;;3.80;99.90;;;;;;5017268;28;20060;-82
2021/11/09 06:19:34;;;;;;;16.83;9.50;;;3.80;99.90;;;;;;5053667;28;20499;-83
2021/11/09 06:22:04;;;;;;;25.80;10.45;;;3.80;99.90;;;;;;5043714;28;20029;-82
2021/11/09 06:24:33;;;;;;;19.88;11.10;;;3.70;99.90;;;;;;5012369;28;20027;-82
2021/11/09 06:27:00;;;;;;;21.30;10.23;;;3.70;99.90;;;;;;5038389;28;20515;-79
2021/11/09 06:29:27;;;;;;;22.35;10.65;;;3.80;99.90;;;;;;5071836;28;20033;-81
2021/11/09 06:32:01;;;;;;;17.88;10.38;;;3.80;99.90;;;;;;5037696;28;20055;-86
2021/11/09 06:34:28;;;;;;;21.00;9.15;;;3.80;99.90;;;;;;5051440;28;20044;-84
2021/11/09 06:37:03;;;;;;;17.23;8.93;;;3.70;99.90;;;;;;5043186;28;20036;-84
2021/11/09 06:39:29;;;;;;;20.20;10.68;;;3.70;99.90;;;;;;5034288;28;20032;-85
2021/11/09 06:41:56;;;;;;;24.63;14.25;;;3.70;99.90;;;;;;5021806;28;20487;-84
2021/11/09 06:44:23;;;;;;;27.90;13.90;;;3.70;99.90;;;;;;5026804;28;20045;-84
2021/11/09 06:46:53;;;;;;;25.02;13.68;;;3.70;99.90;;;;;;5047831;28;20041;-86
2021/11/09 06:49:19;;;;;;;23.02;13.07;;;3.70;99.90;;;;;;5049061;28;20033;-85
2021/11/09 06:51:46;;;;;;;19.80;12.15;;;3.70;99.90;;;;;;5027364;28;20506;-86
2021/11/09 06:54:13;;;;;;;21.70;11.35;;;3.70;99.90;;;;;;5047722;28;20032;-84
2021/11/09 06:56:43;;;;;;;15.77;9.68;;;3.70;99.90;;;;;;5030926;28;20495;-85
2021/11/09 06:59:14;;;;;;;20.02;10.63;;;3.70;99.90;;;;;;5039987;28;20036;-85
2021/11/09 07:01:43;;;;;;;23.50;11.55;;;3.70;99.90;;;;;;5036937;28;20020;-84
2021/11/09 07:04:10;;;;;;;19.23;12.40;;;3.70;99.90;;;;;;5042997;28;20032;-85
2021/11/09 07:06:39;;;;;;;21.05;12.82;;;3.70;99.90;;;;;;5070359;28;20043;-85
2021/11/09 07:09:17;;;;;;;21.00;10.17;;;3.70;99.90;;;;;;5015362;28;20036;-85
2021/11/09 07:11:47;;;;;;;20.85;11.60;;;3.70;99.90;;;;;;5045649;28;20033;-85
2021/11/09 07:14:15;;;;;;;18.67;10.30;;;3.70;99.90;;;;;;5034884;28;20045;-85
2021/11/09 07:16:45;;;;;;;16.75;10.55;;;3.70;99.90;;;;;;5052761;28;20543;-85
2021/11/09 07:19:15;;;;;;;18.45;10.70;;;3.70;99.90;;;;;;5011118;28;20043;-85
2021/11/09 07:21:46;;;;;;;15.38;9.70;;;3.80;99.90;;;;;;5054277;28;20032;-84
2021/11/09 07:24:13;;;;;;;18.35;10.63;;;3.80;99.90;;;;;;5018544;28;20063;-85
2021/11/09 07:26:43;;;;;;;16.75;10.90;;;3.80;99.90;;;;;;5051357;28;20508;-85
2021/11/09 07:29:13;;;;;;;16.55;10.25;;;3.90;99.90;;;;;;5025630;28;20032;-86
2021/11/09 07:31:42;;;;;;;16.17;9.27;;;3.90;99.90;;;;;;5034758;28;20496;-85
2021/11/09 07:34:09;;;;;;;19.10;9.90;;;3.90;99.90;;;;;;5013146;28;20463;-85
2021/11/09 07:36:39;;;;;;;15.00;8.87;;;4.00;99.90;;;;;;5035015;28;20055;-85
2021/11/09 07:39:07;;;;;;;19.67;10.57;;;4.00;99.90;;;;;;5035661;28;20040;-85
2021/11/09 07:41:36;;;;;;;18.42;9.68;;;4.10;99.90;;;;;;5019577;28;20025;-84
2021/11/09 07:44:04;;;;;;;14.15;8.65;;;4.20;99.90;;;;;;5018709;28;20056;-85
2021/11/09 07:46:34;;;;;;;15.02;8.88;;;4.20;99.90;;;;;;5036982;28;20036;-85
2021/11/09 07:49:04;;;;;;;14.70;8.82;;;4.30;99.90;;;;;;5068911;28;20036;-86
2021/11/09 07:51:30;;;;;;;19.25;9.68;;;4.40;99.90;;;;;;5018372;28;20037;-82
2021/11/09 07:53:59;;;;;;;16.92;9.43;;;4.40;99.90;;;;;;5069130;28;20047;-81
2021/11/09 07:56:33;;;;;;;18.63;9.35;;;4.50;99.90;;;;;;5019347;28;20063;-86
2021/11/09 08:04:10;;;;;;;16.65;9.25;;;4.70;99.90;;;;;;5068407;28;20039;-85
2021/11/09 08:06:52;;;;;;;19.30;10.13;;;4.80;99.90;;;;;;5033427;28;20032;-86
2021/11/09 08:11:49;;;;;;;25.88;13.30;;;5.00;99.90;;;;;;5052596;28;20036;-86
2021/11/09 08:14:17;;;;;;;28.38;13.85;;;5.10;99.90;;;;;;5035733;28;20496;-88
2021/11/09 08:16:46;;;;;;;24.40;12.20;;;5.10;99.90;;;;;;5017822;28;20048;-87
2021/11/09 08:19:15;;;;;;;21.23;11.88;;;5.20;99.90;;;;;;5027861;28;20472;-87
2021/11/09 08:21:42;;;;;;;18.55;10.05;;;5.30;99.90;;;;;;5036590;28;20035;-87
2021/11/09 08:24:10;;;;;;;20.48;11.05;;;5.40;99.90;;;;;;5033696;28;20029;-87
2021/11/09 08:26:40;;;;;;;20.00;10.73;;;5.50;99.90;;;;;;5052580;28;20393;-88
2021/11/09 08:29:13;;;;;;;28.30;12.18;;;5.60;99.90;;;;;;5038462;28;20043;-87
2021/11/09 08:31:46;;;;;;;28.70;14.25;;;5.70;99.90;;;;;;5033058;28;20033;-80
2021/11/09 08:34:15;;;;;;;27.77;12.73;;;5.70;99.90;;;;;;5045964;28;20052;-85
2021/11/09 08:36:45;;;;;;;30.65;14.32;;;5.80;99.90;;;;;;5053360;28;20032;-87
2021/11/09 08:39:22;;;;;;;32.05;14.20;;;5.90;99.90;;;;;;5045566;28;20407;-89
2021/11/09 08:42:10;;;;;;;26.75;14.07;;;6.00;99.90;;;;;;5051852;28;20048;-82
2021/11/09 08:47:19;;;;;;;27.30;14.10;;;6.20;99.90;;;;;;5050070;28;20387;-89
2021/11/09 08:49:46;;;;;;;24.38;12.65;;;6.30;99.90;;;;;;5051870;28;20035;-89
2021/11/09 08:52:14;;;;;;;21.67;12.27;;;6.40;99.90;;;;;;5010424;28;20040;-90
2021/11/09 09:05:48;;;;;;;33.35;12.45;;;6.90;99.90;;;;;;5067079;28;20073;-90
2021/11/09 09:08:21;;;;;;;19.90;10.77;;;7.00;99.90;;;;;;5049456;28;20029;-89
2021/11/09 09:10:50;;;;;;;23.80;10.68;;;7.10;99.90;;;;;;5003889;28;20041;-90
2021/11/09 09:13:22;;;;;;;29.50;10.88;;;7.20;99.90;;;;;;5036519;28;20729;-91
2021/11/09 09:15:51;;;;;;;32.17;13.38;;;7.20;99.90;;;;;;5038391;28;20052;-91
2021/11/09 09:18:24;;;;;;;27.35;12.75;;;7.40;99.90;;;;;;5029405;28;20495;-91
2021/11/09 09:21:25;;;;;;;22.83;11.25;;;7.50;99.90;;;;;;5042481;28;20044;-90
2021/11/09 09:23:56;;;;;;;23.23;11.25;;;7.60;99.90;;;;;;5039158;28;20043;-91
2021/11/09 09:26:40;;;;;;;23.73;10.13;;;7.70;99.90;;;;;;5038644;28;20039;-90
2021/11/09 09:52:27;;;;;;;19.92;9.13;;;9.10;99.90;;;;;;5055791;28;20048;-91
2021/11/09 09:57:52;;;;;;;22.30;8.45;;;9.60;99.90;;;;;;5052367;28;20044;-87
2021/11/09 10:00:51;;;;;;;32.42;11.75;;;9.80;99.90;;;;;;5002159;28;20447;-89
2021/11/09 10:04:19;;;;;;;21.08;9.85;;;10.10;99.90;;;;;;5014664;28;20678;-88
2021/11/09 10:06:54;;;;;;;19.85;7.03;;;10.50;99.90;;;;;;5024973;28;20035;-93
2021/11/09 10:09:46;;;;;;;15.63;6.18;;;10.80;99.90;;;;;;5025376;28;20044;-90
2021/11/09 10:12:34;;;;;;;21.13;7.47;;;11.10;99.90;;;;;;5054033;28;20499;-90
2021/11/09 10:15:21;;;;;;;13.95;5.30;;;11.40;99.90;;;;;;5036938;28;20063;-90
2021/11/09 10:22:16;;;;;;;22.30;8.80;;;11.90;99.90;;;;;;5013598;28;20121;-89
2021/11/09 10:25:21;;;;;;;18.40;9.63;;;12.30;99.90;;;;;;4989970;28;20037;-86
2021/11/09 10:54:40;;;;;;;19.38;6.68;;;12.40;99.90;;;;;;4999072;28;20029;-88
2021/11/09 10:57:23;;;;;;;18.10;6.88;;;12.00;99.90;;;;;;4970699;28;20085;-89
2021/11/09 11:00:25;;;;;;;20.85;7.15;;;11.80;99.90;;;;;;4983259;28;20509;-89
2021/11/09 11:11:22;;;;;;;17.70;7.15;;;11.20;99.90;;;;;;4973865;28;20038;-91
2021/11/09 11:14:10;;;;;;;25.42;7.65;;;11.10;99.90;;;;;;4949437;28;20049;-83
2021/11/09 11:17:30;;;;;;;16.80;6.55;;;11.00;99.90;;;;;;5011609;28;20052;-89
2021/11/09 11:24:21;;;;;;;20.65;9.00;;;10.90;99.90;;;;;;5054681;28;20048;-91
2021/11/09 11:26:50;;;;;;;16.23;6.75;;;10.80;99.90;;;;;;5020506;28;20036;-80
2021/11/09 11:29:34;;;;;;;18.67;7.97;;;10.70;99.90;;;;;;5029114;28;20032;-89
2021/11/09 11:32:18;;;;;;;21.15;7.38;;;10.70;99.90;;;;;;5026483;28;20064;-83
2021/11/09 11:34:50;;;;;;;21.27;7.25;;;10.70;99.90;;;;;;5049234;28;20033;-85
2021/11/09 11:37:22;;;;;;;21.88;7.78;;;10.70;99.90;;;;;;5010758;28;20036;-84
2021/11/09 11:40:04;;;;;;;23.30;6.70;;;10.70;99.90;;;;;;5056250;28;20032;-86
2021/11/09 11:46:55;;;;;;;12.23;5.00;;;10.70;99.90;;;;;;5046945;28;20036;-86
2021/11/09 11:49:40;;;;;;;19.65;6.82;;;10.80;99.90;;;;;;5016299;28;20396;-84
2021/11/09 11:52:26;;;;;;;21.65;6.95;;;10.80;99.90;;;;;;5028702;28;20041;-83
2021/11/09 11:56:12;;;;;;;;;;;;;;;;;;;;;
2021/11/09 11:59:00;;;;;;;28.13;15.73;;;10.90;99.90;;;;;;4983329;28;20038;-85
2021/11/09 12:02:04;;;;;;;21.60;9.75;;;10.90;99.90;;;;;;4999235;28;20457;-81
2021/11/09 12:05:05;;;;;;;25.63;8.85;;;10.90;99.90;;;;;;4982069;28;20031;-81
2021/11/09 12:09:07;;;;;;;20.27;6.25;;;10.80;99.90;;;;;;4953965;28;20057;-81
2021/11/09 12:12:30;;;;;;;17.05;6.97;;;10.80;99.90;;;;;;4947927;28;20042;-83
2021/11/09 12:15:03;;;;;;;16.48;6.10;;;10.80;99.90;;;;;;5071138;28;20040;-81
2021/11/09 12:17:40;;;;;;;18.80;5.72;;;10.90;99.90;;;;;;5032649;28;20041;-80
2021/11/09 12:20:44;;;;;;;16.15;6.68;;;10.90;99.90;;;;;;5062374;28;20041;-80
2021/11/09 12:23:35;;;;;;;19.35;6.00;;;10.90;99.90;;;;;;5039153;28;20096;-81
2021/11/09 12:26:40;;;;;;;15.23;5.57;;;10.90;99.90;;;;;;5031609;28;20056;-81
2021/11/09 12:29:39;;;;;;;18.40;6.25;;;10.90;99.90;;;;;;5040041;28;20383;-82
2021/11/09 12:32:42;;;;;;;20.58;7.43;;;10.90;99.90;;;;;;5065963;28;20036;-81
2021/11/09 12:35:19;;;;;;;16.63;5.60;;;10.90;99.90;;;;;;4985365;28;20407;-84
2021/11/09 12:38:36;;;;;;;34.90;16.20;;;10.90;99.90;;;;;;5060922;28;20459;-82
2021/11/09 12:45:27;;;;;;;;;;;10.90;99.90;;;;;;4978437;28;20056;-85
2021/11/09 12:48:01;;;;;;;21.13;7.10;;;10.90;99.90;;;;;;4988753;28;19912;-77
2021/11/09 12:50:28;;;;;;;18.17;7.80;;;11.00;99.90;;;;;;5048588;28;20487;-78
2021/11/09 12:53:10;;;;;;;16.73;5.70;;;11.00;99.90;;;;;;5051681;28;20057;-77
2021/11/09 12:55:40;;;;;;;15.30;5.38;;;10.90;99.90;;;;;;5051263;28;20531;-79
2021/11/09 12:58:14;;;;;;;19.02;6.15;;;10.90;99.90;;;;;;5038182;28;20021;-79
2021/11/09 13:00:43;;;;;;;27.10;6.93;;;11.00;99.90;;;;;;5021463;28;20047;-79
2021/11/09 13:03:41;;;;;;;19.30;5.70;;;10.90;99.90;;;;;;5055017;28;20045;-78
2021/11/09 13:06:19;;;;;;;15.85;5.13;;;10.90;99.90;;;;;;5024490;28;20045;-82
2021/11/09 13:09:22;;;;;;;20.48;5.90;;;10.90;99.90;;;;;;5035933;28;20476;-81
2021/11/09 13:11:59;;;;;;;26.67;7.15;;;10.90;99.90;;;;;;5023486;28;20032;-79
2021/11/09 13:14:57;;;;;;;27.92;7.78;;;10.90;99.90;;;;;;5065647;28;20043;-77
2021/11/09 13:17:42;;;;;;;15.73;6.97;;;10.90;99.90;;;;;;5068439;28;20388;-77
2021/11/09 13:23:20;;;;;;;14.25;5.53;;;10.90;99.90;;;;;;5022050;28;20052;-76
2021/11/09 13:25:51;;;;;;;23.92;6.72;;;10.80;99.90;;;;;;5050644;28;20029;-79
2021/11/09 13:28:34;;;;;;;21.80;5.85;;;10.80;99.90;;;;;;5072174;28;20028;-79
2021/11/09 13:31:09;;;;;;;18.13;6.35;;;10.80;99.90;;;;;;5072099;28;20039;-80
2021/11/09 13:33:40;;;;;;;19.95;6.43;;;10.80;99.90;;;;;;5066459;28;20035;-80
2021/11/09 13:36:08;;;;;;;19.35;6.35;;;10.80;99.90;;;;;;5053341;28;20055;-79
2021/11/09 13:38:40;;;;;;;16.77;5.38;;;10.80;99.90;;;;;;5031847;28;20037;-80
2021/11/09 13:41:16;;;;;;;17.45;5.55;;;10.70;99.90;;;;;;5072096;28;20044;-79
2021/11/09 13:43:50;;;;;;;21.75;6.20;;;10.70;99.90;;;;;;5070132;28;20024;-76
2021/11/09 13:46:24;;;;;;;22.80;7.53;;;10.70;99.90;;;;;;5067281;28;20352;-78
2021/11/09 13:48:52;;;;;;;16.80;7.18;;;10.60;99.90;;;;;;5052945;28;20032;-76
2021/11/09 13:51:25;;;;;;;27.65;11.43;;;10.60;99.90;;;;;;5020080;28;20032;-76
2021/11/09 13:54:04;;;;;;;;;;;10.60;99.90;;;;;;5047850;28;20025;-76
2021/11/09 13:56:32;;;;;;;25.98;8.65;;;10.60;99.90;;;;;;5065338;28;20596;-76
2021/11/09 13:59:08;;;;;;;18.73;6.30;;;10.60;99.90;;;;;;5049585;28;20036;-75
2021/11/09 14:01:56;;;;;;;19.33;6.18;;;10.50;99.90;;;;;;5065001;28;20492;-76
2021/11/09 14:17:52;;;;;;;14.27;5.65;;;10.80;99.90;;;;;;5049763;28;20056;-76
2021/11/09 14:20:22;;;;;;;16.52;5.57;;;10.80;99.90;;;;;;5004460;28;20041;-77
2021/11/09 14:23:01;;;;;;;15.40;4.72;;;10.80;99.90;;;;;;5035284;28;20033;-84
2021/11/09 14:25:29;;;;;;;13.07;4.38;;;10.80;99.90;;;;;;5064795;28;20476;-80
2021/11/09 14:28:00;;;;;;;14.02;4.30;;;10.80;99.90;;;;;;5061333;28;20029;-81
2021/11/09 14:30:28;;;;;;;17.15;4.63;;;10.80;99.90;;;;;;5000578;28;20567;-82
2021/11/09 14:33:18;;;;;;;20.05;7.22;;;10.70;99.90;;;;;;5014706;28;20145;-76
2021/11/09 14:35:45;;;;;;;24.48;9.18;;;10.70;99.90;;;;;;4991590;28;20058;-77
2021/11/09 14:38:13;;;;;;;23.08;9.93;;;10.70;99.90;;;;;;4993937;28;20065;-77
2021/11/09 14:40:57;;;;;;;23.50;8.32;;;10.70;99.90;;;;;;4976931;28;20037;-77
2021/11/09 14:43:30;;;;;;;27.00;9.65;;;10.70;99.90;;;;;;5016887;28;20692;-77
2021/11/09 14:46:09;;;;;;;29.10;10.00;;;10.70;99.90;;;;;;5014725;28;20041;-79
2021/11/09 14:56:24;;;;;;;11.07;3.95;;;10.80;99.90;;;;;;5028628;28;20353;-77
2021/11/09 14:58:55;;;;;;;13.35;4.00;;;10.80;99.90;;;;;;5050244;28;20041;-79
2021/11/09 15:01:42;;;;;;;11.38;4.18;;;10.80;99.90;;;;;;5036764;28;20036;-80
2021/11/09 15:04:18;;;;;;;13.73;3.75;;;10.70;99.90;;;;;;5060794;28;20356;-79
2021/11/09 15:26:12;;;;;;;12.50;3.45;;;10.70;99.90;;;;;;5067259;28;20029;-80
2021/11/09 15:28:49;;;;;;;15.35;4.32;;;10.60;99.90;;;;;;5051473;28;20063;-79
2021/11/09 15:31:23;;;;;;;12.80;6.65;;;10.60;99.90;;;;;;5030119;28;20052;-79
2021/11/09 15:36:49;;;;;;;17.67;5.35;;;10.50;99.90;;;;;;4954347;28;20054;-79
2021/11/09 15:39:17;;;;;;;12.13;4.75;;;10.40;99.90;;;;;;5047169;28;20036;-80
2021/11/09 15:41:45;;;;;;;18.27;5.00;;;10.40;99.90;;;;;;5049695;28;20151;-80
2021/11/09 15:44:13;;;;;;;13.88;4.18;;;10.30;99.90;;;;;;5011204;28;20486;-80
2021/11/09 15:46:39;;;;;;;10.75;3.55;;;10.30;99.90;;;;;;5047473;28;20033;-81
2021/11/09 15:49:09;;;;;;;9.02;2.83;;;10.20;99.90;;;;;;5033015;28;20040;-81
2021/11/09 15:51:37;;;;;;;11.48;3.17;;;10.10;99.90;;;;;;5049465;28;20033;-81
2021/11/09 15:54:04;;;;;;;10.75;4.45;;;10.00;99.90;;;;;;5029177;28;20049;-81
2021/11/09 15:56:39;;;;;;;18.98;8.52;;;9.90;99.90;;;;;;5017121;28;20483;-80
2021/11/09 15:59:24;;;;;;;18.02;10.43;;;9.80;99.90;;;;;;5045814;28;20594;-81
2021/11/09 16:01:56;;;;;;;19.55;10.07;;;9.80;99.90;;;;;;5066140;28;20036;-81
2021/11/09 16:04:31;;;;;;;14.10;7.80;;;9.70;99.90;;;;;;5026304;28;20036;-80
2021/11/09 16:07:03;;;;;;;15.68;6.13;;;9.70;99.90;;;;;;5030897;28;20039;-80
2021/11/09 16:09:32;;;;;;;10.10;5.05;;;9.60;99.90;;;;;;5032505;28;20067;-81
2021/11/09 16:12:23;;;;;;;9.07;3.58;;;9.60;99.90;;;;;;5016678;28;20036;-81
2021/11/09 16:19:21;;;;;;;10.07;2.97;;;9.40;99.90;;;;;;4930322;29;20059;-81
2021/11/09 16:21:55;;;;;;;9.55;2.40;;;9.20;99.90;;;;;;4948778;28;20400;-81
2021/11/09 16:24:22;;;;;;;10.68;2.90;;;9.20;99.90;;;;;;4984948;28;20028;-82
2021/11/09 16:26:49;;;;;;;10.40;3.17;;;9.10;99.90;;;;;;4992796;28;20053;-83
2021/11/09 16:30:00;;;;;;;10.13;2.58;;;9.00;99.90;;;;;;5000101;28;20045;-89
2021/11/09 16:32:36;;;;;;;10.15;2.60;;;9.00;99.90;;;;;;5007159;28;20049;-81
2021/11/09 16:37:45;;;;;;;11.73;3.17;;;8.80;99.90;;;;;;5032918;28;20017;-83
2021/11/09 16:40:52;;;;;;;9.53;2.40;;;8.80;99.90;;;;;;4997856;28;20044;-84
2021/11/09 16:43:37;;;;;;;12.02;4.45;;;8.70;99.90;;;;;;5020136;28;20040;-85
2021/11/09 16:46:13;;;;;;;14.38;5.28;;;8.70;99.90;;;;;;5033219;28;20028;-83
2021/11/09 16:49:00;;;;;;;12.30;4.20;;;8.60;99.90;;;;;;5011116;28;20037;-81
2021/11/09 16:54:42;;;;;;;15.93;6.85;;;8.50;99.90;;;;;;4977278;28;20041;-87
2021/11/09 17:05:15;;;;;;;14.05;5.75;;;8.30;99.90;;;;;;5028580;28;20037;-78
2021/11/09 18:20:06;;;;;;;32.22;15.43;;;8.60;99.90;;;;;;4988146;28;20030;-89
2021/11/09 18:22:40;;;;;;;31.13;13.82;;;8.70;99.90;;;;;;4945487;28;20042;-84
2021/11/09 18:25:10;;;;;;;28.33;13.52;;;8.70;99.90;;;;;;4995990;28;20045;-87
2021/11/09 18:27:38;;;;;;;25.05;11.35;;;8.80;99.90;;;;;;5026058;28;20036;-86
2021/11/09 18:30:08;;;;;;;19.83;9.05;;;8.90;99.90;;;;;;5018189;28;20025;-89
2021/11/09 18:32:37;;;;;;;18.52;7.50;;;8.90;99.90;;;;;;5004298;28;20518;-88
2021/11/09 18:35:08;;;;;;;17.27;6.90;;;8.90;99.90;;;;;;5027762;28;20033;-88
2021/11/09 18:37:35;;;;;;;13.52;4.95;;;9.00;99.90;;;;;;5002406;28;20041;-89
2021/11/09 18:40:03;;;;;;;15.93;5.28;;;9.00;99.90;;;;;;4992809;28;20037;-81